Latest Weather Observations for Canterbury

IDN60901

Issued at 12:21 pm EST Monday 1 May 2017 (issued every 10 minutes, with the page automatically refreshed every 10 minutes)

About weather observations | Map of Sydney area stations | Latest observations for Sydney area | Other Formats
Station Details ID: 066194 Name: CANTERBURY RACECOURSE AWS Lat: -33.91 Lon: 151.11 Height: 3.0 m
Data from the previous 72 hours. | See also: Recent months at Canterbury
Date/Time
EST
Temp
°C
App
Temp
°C
Dew
Point
°C
Rel
Hum
%
Delta-T
°C
Wind Press
QNH
hPa
Press
MSL
hPa
Rain since
9am
mm
Dir  Spd
km/h
Gust
km/h
Spd
kts
Gust
kts
01/12:00pm 22.6 19.5 11.7 50 6.1 N 19 26 10 14 - - 0.0
01/11:30am 21.8 20.7 13.2 58 4.9 N 11 19 6 10 - - 0.0
01/11:00am 21.4 20.6 12.8 58 4.9 NW 9 15 5 8 - - 0.0
01/10:30am 19.9 19.6 13.4 66 3.7 NW 7 13 4 7 - - 0.0
01/10:00am 19.1 18.7 13.1 68 3.4 NNW 7 13 4 7 - - 0.0
01/09:30am 17.1 16.8 12.8 76 2.4 W 6 9 3 5 - - 0.0
01/09:00am 16.2 15.8 13.1 82 1.7 W 7 11 4 6 - - 0.0
01/08:30am 14.9 14.6 13.3 90 0.9 WNW 7 9 4 5 - - 0.0
01/08:00am 13.7 13.7 13.7 100 0.0 NW 6 9 3 5 - - 0.0
01/07:30am 12.5 13.3 12.5 100 0.0 CALM 0 0 0 0 - - 0.0
01/07:15am 11.3 11.7 11.1 99 0.1 CALM 0 0 0 0 - - 0.0
01/07:00am 10.5 10.6 10.3 99 0.1 CALM 0 0 0 0 - - 0.0
01/06:59am 10.5 10.6 10.3 99 0.1 CALM 0 0 0 0 - - 0.0
01/06:30am 10.2 10.3 10.1 99 0.1 CALM 0 0 0 0 - - 0.0
01/06:00am 9.4 9.3 9.3 99 0.0 CALM 0 0 0 0 - - 0.0
01/05:30am 10.2 10.3 10.1 99 0.1 CALM 0 0 0 0 - - 0.0
01/05:00am 9.9 9.9 9.8 99 0.1 CALM 0 0 0 0 - - 0.0
01/04:30am 10.2 10.3 10.1 99 0.1 CALM 0 0 0 0 - - 0.0
01/04:00am 10.6 10.8 10.4 99 0.1 CALM 0 0 0 0 - - 0.0
01/03:41am 10.5 10.6 10.3 99 0.1 CALM 0 0 0 0 - - 0.0
01/03:39am 10.5 10.6 10.3 99 0.1 CALM 0 0 0 0 - - 0.0
01/03:30am 10.9 11.1 10.7 99 0.1 CALM 0 0 0 0 - - 0.0
01/03:00am 10.4 10.5 10.2 99 0.1 CALM 0 0 0 0 - - 0.0
01/02:57am 10.4 10.5 10.2 99 0.1 CALM 0 0 0 0 - - 0.0
01/02:30am 10.9 11.1 10.7 99 0.1 CALM 0 0 0 0 - - 0.0
01/02:24am 11.1 11.4 10.9 99 0.1 CALM 0 0 0 0 - - 0.0
01/02:05am 11.2 11.5 11.0 99 0.1 CALM 0 0 0 0 - - 0.0
01/02:00am 11.0 11.3 10.8 99 0.1 CALM 0 0 0 0 - - 0.0
01/01:30am 11.5 11.9 11.3 99 0.1 CALM 0 0 0 0 - - 0.0
01/01:00am 11.4 11.8 11.1 98 0.2 CALM 0 0 0 0 - - 0.0
01/12:30am 11.3 11.6 11.0 98 0.2 CALM 0 0 0 0 - - 0.0
01/12:00am 12.0 12.5 11.7 98 0.2 CALM 0 0 0 0 - - 0.0
 
Date/Time
EST
Temp
°C
App
Temp
°C
Dew
Point
°C
Rel
Hum
%
Delta-T
°C
Wind Press
QNH
hPa
Press
MSL
hPa
Rain since
9am
mm
Dir  Spd
km/h
Gust
km/h
Spd
kts
Gust
kts
30/11:30pm 11.9 12.3 11.4 97 0.3 CALM 0 0 0 0 - - 0.0
30/11:00pm 12.3 12.9 11.8 97 0.3 CALM 0 0 0 0 - - 0.0
30/10:30pm 12.7 13.4 12.2 97 0.3 CALM 0 0 0 0 - - 0.0
30/10:00pm 12.4 13.0 11.8 96 0.3 CALM 0 0 0 0 - - 0.0
30/09:30pm 12.8 13.5 12.2 96 0.3 CALM 0 0 0 0 - - 0.0
30/09:00pm 13.1 13.8 12.3 95 0.4 CALM 0 0 0 0 - - 0.0
30/08:30pm 13.4 14.2 12.5 94 0.5 CALM 0 0 0 0 - - 0.0
30/08:00pm 13.9 14.7 12.6 92 0.7 CALM 0 0 0 0 - - 0.0
30/07:30pm 14.1 14.9 12.5 90 0.9 CALM 0 0 0 0 - - 0.0
30/07:00pm 14.6 15.3 12.1 85 1.4 CALM 0 0 0 0 - - 0.0
30/06:30pm 15.4 14.9 12.0 80 1.8 E 6 7 3 4 - - 0.0
30/06:00pm 17.2 16.8 12.5 74 2.6 E 6 9 3 5 - - 0.0
30/05:30pm 17.9 16.8 13.0 73 2.7 SE 11 17 6 9 - - 0.0
30/05:00pm 18.6 16.6 12.8 69 3.3 SE 15 19 8 10 - - 0.0
30/04:30pm 19.3 17.4 13.0 67 3.6 SE 15 19 8 10 - - 0.0
30/04:00pm 19.7 17.4 12.9 65 3.8 SE 17 22 9 12 - - 0.0
30/03:30pm 20.0 17.5 12.3 61 4.3 SE 17 22 9 12 - - 0.0
30/03:00pm 20.0 17.6 12.5 62 4.2 SE 17 24 9 13 - - 0.0
30/02:30pm 20.4 17.9 12.4 60 4.5 SE 17 24 9 13 - - 0.0
30/02:00pm 21.2 18.7 12.3 57 5.0 SE 17 28 9 15 - - 0.0
30/01:30pm 21.2 18.3 12.3 57 5.0 SE 19 28 10 15 - - 0.0
30/01:00pm 20.8 17.9 12.2 58 4.8 SE 19 26 10 14 - - 0.0
30/12:30pm 20.3 18.1 12.0 59 4.6 SSE 15 28 8 15 - - 0.0
30/12:00pm 20.2 18.6 11.4 57 4.8 SSE 11 20 6 11 - - 0.0
30/11:30am 20.9 18.8 12.3 58 4.8 SSE 15 20 8 11 - - 0.0
30/11:00am 20.5 17.9 12.0 58 4.7 SE 17 24 9 13 - - 0.0
30/10:30am 20.2 18.0 12.2 60 4.5 SSE 15 24 8 13 - - 0.0
30/10:00am 19.3 18.5 11.8 62 4.1 S 7 13 4 7 - - 0.0
30/09:30am 18.4 17.8 11.7 65 3.7 WSW 6 9 3 5 - - 0.0
30/09:00am 16.5 14.6 10.6 68 3.1 WSW 11 13 6 7 - - 0.0
30/08:30am 15.8 14.3 10.6 71 2.8 W 9 11 5 6 - - 0.0
30/08:00am 15.1 14.2 10.5 74 2.4 WNW 6 9 3 5 - - 0.0
30/07:30am 14.6 13.4 10.2 75 2.3 W 7 9 4 5 - - 0.0
30/07:00am 14.2 13.2 10.4 78 2.0 WNW 6 9 3 5 - - 0.0
30/06:30am 14.0 13.7 10.2 78 2.0 WNW 2 7 1 4 - - 0.0
30/06:00am 13.8 13.5 10.2 79 1.9 WNW 2 7 1 4 - - 0.0
30/05:30am 13.9 13.7 10.3 79 1.9 WNW 2 7 1 4 - - 0.0
30/05:00am 13.8 14.0 10.4 80 1.8 CALM 0 0 0 0 - - 0.0
30/04:30am 13.5 13.6 10.1 80 1.8 CALM 0 7 0 4 - - 0.0
30/04:00am 13.5 12.4 10.1 80 1.8 WNW 6 9 3 5 - - 0.0
30/03:30am 13.3 12.7 10.5 83 1.5 ENE 4 7 2 4 - - 0.0
30/03:00am 12.4 12.5 10.3 87 1.1 CALM 0 0 0 0 - - 0.0
30/02:30am 11.0 10.8 9.1 88 0.9 CALM 0 0 0 0 - - 0.0
30/02:00am 11.9 12.1 10.6 92 0.7 CALM 0 0 0 0 - - 0.0
30/01:30am 12.2 11.2 10.4 89 0.9 NW 6 9 3 5 - - 0.0
30/01:00am 13.2 13.4 10.6 84 1.4 CALM 0 0 0 0 - - 0.0
30/12:30am 14.6 13.7 10.8 78 2.0 WNW 6 9 3 5 - - 0.0
30/12:00am 15.1 14.1 11.1 77 2.1 WNW 7 13 4 7 - - 0.0
 
Date/Time
EST
Temp
°C
App
Temp
°C
Dew
Point
°C
Rel
Hum
%
Delta-T
°C
Wind Press
QNH
hPa
Press
MSL
hPa
Rain since
9am
mm
Dir  Spd
km/h
Gust
km/h
Spd
kts
Gust
kts
29/11:30pm 15.1 14.1 11.1 77 2.1 W 7 11 4 6 - - 0.0
29/11:00pm 15.1 14.4 11.3 78 2.0 W 6 9 3 5 - - 0.0
29/10:30pm 14.7 15.2 11.7 82 1.6 CALM 0 0 0 0 - - 0.0
29/10:00pm 13.7 14.0 12.1 90 0.9 WNW 2 6 1 3 - - 0.0
29/09:30pm 12.0 11.4 10.4 90 0.8 WNW 4 7 2 4 - - 0.0
29/09:00pm 12.3 12.5 10.7 90 0.8 CALM 0 6 0 3 - - 0.0
29/08:30pm 12.4 12.5 10.3 87 1.1 CALM 0 0 0 0 - - 0.0
29/08:00pm 13.0 13.2 10.5 85 1.3 CALM 0 0 0 0 - - 0.0
29/07:54pm 13.2 13.4 10.7 85 1.3 CALM 0 0 0 0 - - 0.0
29/07:30pm 13.6 13.9 10.8 83 1.5 CALM 0 0 0 0 - - 0.0
29/07:26pm 13.6 13.8 10.6 82 1.6 CALM 0 0 0 0 - - 0.0
29/07:00pm 13.5 13.4 9.6 77 2.0 CALM 0 0 0 0 - - 0.0
29/06:30pm 15.1 15.2 10.1 72 2.6 CALM 0 0 0 0 - - 0.0
29/06:00pm 16.4 15.3 10.0 66 3.4 SE 6 9 3 5 - - 0.0
29/05:30pm 17.5 15.9 10.1 62 3.9 SE 9 13 5 7 - - 0.0
29/05:00pm 18.4 16.0 10.0 58 4.5 SE 13 20 7 11 - - 0.0
29/04:30pm 19.3 16.3 9.2 52 5.3 SE 15 22 8 12 - - 0.0
29/04:00pm 19.7 16.6 8.7 49 5.7 SE 15 20 8 11 - - 0.0
29/03:30pm 20.0 17.0 9.3 50 5.7 SE 15 22 8 12 - - 0.0
29/03:00pm 20.4 17.6 9.9 51 5.6 SE 15 20 8 11 - - 0.0
29/02:30pm 21.2 18.7 8.1 43 6.8 ESE 11 17 6 9 - - 0.0
29/02:00pm 21.3 19.3 8.6 44 6.7 ESE 9 13 5 7 - - 0.0
29/01:30pm 21.3 19.5 9.5 47 6.3 ENE 9 22 5 12 - - 0.0
29/01:00pm 21.3 19.4 7.5 41 7.1 NE 7 17 4 9 - - 0.0
29/12:30pm 21.0 19.2 8.0 43 6.8 NNW 7 13 4 7 - - 0.0
29/12:00pm 20.5 18.9 7.8 44 6.6 SSW 6 15 3 8 - - 0.0
29/11:30am 19.3 17.2 6.8 44 6.3 SSW 7 13 4 7 - - 0.0
29/11:00am 18.8 16.2 7.6 48 5.7 WSW 11 15 6 8 - - 0.0
29/10:30am 18.1 14.6 7.2 49 5.5 W 15 20 8 11 - - 0.0
29/10:00am 16.9 13.9 7.5 54 4.7 WSW 13 20 7 11 - - 0.0
29/09:30am 15.9 12.8 7.1 56 4.3 W 13 20 7 11 - - 0.0
29/09:00am 15.0 12.3 7.5 61 3.7 W 11 17 6 9 - - 0.0
29/08:30am 13.5 10.7 6.8 64 3.2 W 11 17 6 9 - - 0.0
29/08:00am 12.1 9.7 7.0 71 2.4 WNW 9 15 5 8 - - 0.0
29/07:30am 10.7 8.8 6.6 76 1.9 NW 6 13 3 7 - - 0.0
29/07:00am 9.2 7.0 6.1 81 1.4 NNW 7 11 4 6 - - 0.0
29/06:30am 8.8 6.5 5.9 82 1.3 NNW 7 9 4 5 - - 0.0
29/06:00am 8.8 6.6 6.3 84 1.1 NNW 7 11 4 6 - - 0.0
29/05:30am 8.8 6.7 6.8 87 0.9 NW 7 9 4 5 - - 0.0
29/05:00am 8.6 6.7 6.9 89 0.8 NW 6 7 3 4 - - 0.0
29/04:30am 8.7 7.0 7.5 92 0.6 NW 6 9 3 5 - - 0.0
29/04:00am 8.4 6.9 7.0 91 0.7 NW 4 7 2 4 - - 0.0
29/03:30am 8.9 7.6 7.8 93 0.5 NW 4 6 2 3 - - 0.0
29/03:00am 8.5 7.1 7.4 93 0.5 NNW 4 7 2 4 - - 0.0
29/02:30am 8.7 8.1 7.3 91 0.7 CALM 0 0 0 0 - - 0.0
29/02:00am 9.5 9.0 7.8 89 0.8 CALM 0 0 0 0 - - 0.0
29/01:30am 9.5 8.6 7.8 89 0.8 NNW 2 7 1 4 - - 0.0
29/01:00am 9.6 9.1 8.0 90 0.8 CALM 0 0 0 0 - - 0.0
29/12:30am 10.6 10.2 8.4 86 1.1 CALM 0 0 0 0 - - 0.0
29/12:00am 10.7 9.5 8.1 84 1.3 WNW 4 7 2 4 - - 0.0
 
Date/Time
EST
Temp
°C
App
Temp
°C
Dew
Point
°C
Rel
Hum
%
Delta-T
°C
Wind Press
QNH
hPa
Press
MSL
hPa
Rain since
9am
mm
Dir  Spd
km/h
Gust
km/h
Spd
kts
Gust
kts
28/11:30pm 9.7 9.1 7.6 87 1.0 CALM 0 0 0 0 - - 0.0
28/11:00pm 10.5 10.1 8.1 85 1.2 CALM 0 0 0 0 - - 0.0
28/10:30pm 10.3 10.0 8.6 89 0.8 CALM 0 0 0 0 - - 0.0
28/10:00pm 10.3 10.0 8.6 89 0.8 CALM 0 0 0 0 - - 0.0
28/09:30pm 10.6 10.3 8.7 88 0.9 CALM 0 0 0 0 - - 0.0
28/09:00pm 11.1 10.9 9.0 87 1.0 CALM 0 0 0 0 - - 0.0
28/08:30pm 10.9 10.5 8.3 84 1.3 CALM 0 0 0 0 - - 0.0
28/08:00pm 11.3 11.0 8.5 83 1.4 CALM 0 0 0 0 - - 0.0
28/07:30pm 11.7 11.4 8.7 82 1.5 CALM 0 0 0 0 - - 0.0
28/07:00pm 12.5 12.1 8.4 76 2.0 CALM 0 0 0 0 - - 0.0
28/06:30pm 13.3 12.9 8.2 71 2.5 CALM 0 0 0 0 - - 0.0
28/06:00pm 14.0 12.3 7.5 65 3.2 ESE 6 7 3 4 - - 0.0
28/05:30pm 16.0 14.3 8.2 60 3.9 SE 7 11 4 6 - - 0.0
28/05:00pm 17.3 14.8 8.2 55 4.6 SE 11 17 6 9 - - 0.0
28/04:30pm 18.0 14.6 7.7 51 5.2 SE 15 22 8 12 - - 0.0
28/04:00pm 18.1 14.5 6.9 48 5.6 ESE 15 20 8 11 - - 0.0
28/03:30pm 18.7 14.7 8.1 50 5.4 ESE 19 22 10 12 - - 0.0
28/03:00pm 18.5 14.1 7.3 48 5.7 SE 20 28 11 15 - - 0.0
28/02:30pm 18.8 14.6 7.3 47 5.8 SE 19 30 10 16 - - 0.0
28/02:00pm 18.5 14.4 6.0 44 6.1 SE 17 30 9 16 - - 0.0
28/01:30pm 19.2 15.7 5.6 41 6.7 SSE 13 22 7 12 - - 0.0
28/01:00pm 19.6 16.8 5.3 39 7.0 SSW 9 17 5 9 - - 0.0
28/12:30pm 19.0 16.0 6.2 43 6.3 SSW 11 17 6 9 - - 0.0

Latest Capital City Observations: Canberra | Sydney | Melbourne | Brisbane | Adelaide | Perth | Hobart | Darwin

Other Formats:

Comma delimited format used in spreadsheet applications
http://www.bom.gov.au/fwo/IDN60901/IDN60901.94766.axf

JavaScript Object Notation format (JSON) in row-major order
http://www.bom.gov.au/fwo/IDN60901/IDN60901.94766.json